createdAt,value
2022-10-13T00:01:21.171Z,6.85
2022-10-13T00:03:49.658Z,6.77
2022-10-13T00:06:26.305Z,6.77
2022-10-13T00:08:54.689Z,6.80
2022-10-13T00:11:26.962Z,6.67
2022-10-13T00:13:58.782Z,6.52
2022-10-13T00:16:30.786Z,6.39
2022-10-13T00:18:58.994Z,6.31
2022-10-13T00:21:28.369Z,6.31
2022-10-13T00:23:56.855Z,6.40
2022-10-13T00:26:26.713Z,6.35
2022-10-13T00:28:56.214Z,6.35
2022-10-13T00:31:29.113Z,6.40
2022-10-13T00:33:59.662Z,6.40
2022-10-13T00:36:29.114Z,6.39
2022-10-13T00:38:58.408Z,6.39
2022-10-13T00:41:27.077Z,6.40
2022-10-13T00:44:06.179Z,6.39
2022-10-13T00:46:37.518Z,6.34
2022-10-13T00:49:11.674Z,6.26
2022-10-13T00:51:46.501Z,6.23
2022-10-13T00:54:20.331Z,6.23
2022-10-13T00:56:50.629Z,6.18
2022-10-13T00:59:27.387Z,6.14
2022-10-13T01:01:59.179Z,6.08
2022-10-13T01:04:34.448Z,5.94
2022-10-13T01:07:04.530Z,5.92
2022-10-13T01:09:37.630Z,5.99
2022-10-13T01:12:50.450Z,6.03
2022-10-13T01:15:39.704Z,5.96
2022-10-13T01:18:47.328Z,5.93
2022-10-13T01:21:32.622Z,5.92
2022-10-13T01:24:37.748Z,5.88
2022-10-13T01:27:34.122Z,5.86
2022-10-13T01:30:22.977Z,5.79
2022-10-13T01:33:06.008Z,5.74
2022-10-13T01:36:06.914Z,5.70
2022-10-13T01:38:57.139Z,5.84
2022-10-13T01:41:35.389Z,5.92
2022-10-13T01:44:16.270Z,5.88
2022-10-13T01:46:52.151Z,5.73
2022-10-13T01:49:26.689Z,5.70
2022-10-13T01:51:59.528Z,5.63
2022-10-13T01:54:27.174Z,5.59
2022-10-13T01:56:56.899Z,5.56
2022-10-13T01:59:28.815Z,5.55
2022-10-13T02:02:20.788Z,5.64
2022-10-13T02:05:10.933Z,5.68
2022-10-13T02:07:48.924Z,5.70
2022-10-13T02:10:34.247Z,5.53
2022-10-13T02:13:05.885Z,5.42
2022-10-13T02:15:47.874Z,5.48
2022-10-13T02:18:20.045Z,5.55
2022-10-13T02:20:47.971Z,5.51
2022-10-13T02:23:18.318Z,5.54
2022-10-13T02:25:47.609Z,5.57
2022-10-13T02:28:16.653Z,5.62
2022-10-13T02:30:46.239Z,5.60
2022-10-13T02:33:15.835Z,5.55
2022-10-13T02:35:44.010Z,5.57
2022-10-13T02:38:13.021Z,5.60
2022-10-13T02:40:40.851Z,5.57
2022-10-13T02:43:08.538Z,5.55
2022-10-13T02:45:36.293Z,5.49
2022-10-13T02:48:04.129Z,5.50
2022-10-13T02:50:32.013Z,5.58
2022-10-13T02:52:59.661Z,5.60
2022-10-13T02:55:27.477Z,5.66
2022-10-13T02:57:57.475Z,5.67
2022-10-13T03:00:26.144Z,5.56
2022-10-13T03:02:54.234Z,5.53
2022-10-13T03:05:22.284Z,5.48
2022-10-13T03:07:50.087Z,5.51
2022-10-13T03:10:18.025Z,5.50
2022-10-13T03:12:45.723Z,5.50
2022-10-13T03:15:13.469Z,5.48
2022-10-13T03:17:41.188Z,5.42
2022-10-13T03:20:09.834Z,5.28
2022-10-13T03:22:37.462Z,5.25
2022-10-13T03:25:05.916Z,5.37
2022-10-13T03:27:33.789Z,5.44
2022-10-13T03:30:02.241Z,5.45
2022-10-13T03:32:31.562Z,5.42
2022-10-13T03:34:59.395Z,5.34
2022-10-13T03:37:30.739Z,5.32
2022-10-13T03:39:58.381Z,5.30
2022-10-13T03:42:26.038Z,5.35
2022-10-13T03:44:56.308Z,5.37
2022-10-13T03:47:24.362Z,5.40
2022-10-13T03:49:54.779Z,5.39
2022-10-13T03:52:23.246Z,5.28
2022-10-13T03:54:51.011Z,5.26
2022-10-13T03:57:18.816Z,5.31
2022-10-13T03:59:46.843Z,5.32
2022-10-13T04:02:14.490Z,5.22
2022-10-13T04:04:42.307Z,5.07
2022-10-13T04:07:10.027Z,4.99
2022-10-13T04:09:37.707Z,5.07
2022-10-13T04:12:05.606Z,5.13
2022-10-13T04:14:33.511Z,5.21
2022-10-13T04:17:05.001Z,5.24
2022-10-13T04:19:32.663Z,5.21
2022-10-13T04:22:04.222Z,5.20
2022-10-13T04:24:31.960Z,5.18
2022-10-13T04:26:59.654Z,5.17
2022-10-13T04:29:27.297Z,5.08
2022-10-13T04:31:55.575Z,4.96
2022-10-13T04:34:23.215Z,4.99
2022-10-13T04:36:51.842Z,5.04
2022-10-13T04:39:19.758Z,5.07
2022-10-13T04:41:50.691Z,5.03
2022-10-13T04:44:18.354Z,5.03
2022-10-13T04:46:46.198Z,5.02
2022-10-13T04:49:15.252Z,5.03
2022-10-13T04:51:43.382Z,5.03
2022-10-13T04:54:11.185Z,5.03
2022-10-13T04:56:38.857Z,5.05
2022-10-13T04:59:06.579Z,5.08
2022-10-13T05:01:36.030Z,5.07
2022-10-13T05:04:07.077Z,5.06
2022-10-13T05:07:05.229Z,5.06
2022-10-13T05:09:29.731Z,5.10
2022-10-13T05:11:57.638Z,5.15
2022-10-13T05:14:25.350Z,5.17
2022-10-13T05:16:53.295Z,5.12
2022-10-13T05:19:20.993Z,5.07
2022-10-13T05:21:50.370Z,5.12
2022-10-13T05:24:20.646Z,5.12
2022-10-13T05:26:50.598Z,5.06
2022-10-13T05:29:18.886Z,5.04
2022-10-13T05:31:47.037Z,5.14
2022-10-13T05:34:14.744Z,5.15
2022-10-13T05:36:42.438Z,5.14
2022-10-13T05:39:10.381Z,5.08
2022-10-13T05:41:39.219Z,5.04
2022-10-13T05:44:10.863Z,5.02
2022-10-13T05:46:44.209Z,5.06
2022-10-13T05:49:12.280Z,5.10
2022-10-13T05:51:44.367Z,5.13
2022-10-13T05:54:22.893Z,5.19
2022-10-13T05:57:08.681Z,5.25
2022-10-13T05:59:43.380Z,5.36
2022-10-13T06:02:15.849Z,5.37
2022-10-13T06:04:50.462Z,5.36
2022-10-13T06:07:18.620Z,5.42
2022-10-13T06:09:46.771Z,5.48
2022-10-13T06:12:14.765Z,5.49
2022-10-13T06:14:43.317Z,5.44
2022-10-13T06:17:12.859Z,5.48
2022-10-13T06:19:45.378Z,5.59
2022-10-13T06:22:13.290Z,5.67
2022-10-13T06:24:40.956Z,5.71
2022-10-13T06:27:11.113Z,5.78
2022-10-13T06:29:39.557Z,5.86
2022-10-13T06:32:07.251Z,5.96
2022-10-13T06:34:35.122Z,6.00
2022-10-13T06:37:02.880Z,6.10
2022-10-13T06:39:30.560Z,6.20
2022-10-13T06:41:59.976Z,6.27
2022-10-13T06:44:32.420Z,6.36
2022-10-13T06:47:05.407Z,6.48
2022-10-13T06:49:33.375Z,6.55
2022-10-13T06:52:01.051Z,6.66
2022-10-13T06:54:29.066Z,6.74
2022-10-13T06:56:56.848Z,6.92
2022-10-13T06:59:26.371Z,7.16
2022-10-13T07:01:54.466Z,7.32
2022-10-13T07:04:23.036Z,7.67
2022-10-13T07:06:51.649Z,8.00
2022-10-13T07:09:20.526Z,8.04
2022-10-13T07:11:49.532Z,8.21
2022-10-13T07:14:17.343Z,8.17
2022-10-13T07:16:45.382Z,8.18
2022-10-13T07:19:13.078Z,8.29
2022-10-13T07:21:42.269Z,8.35
2022-10-13T07:24:11.673Z,8.57
2022-10-13T07:26:39.332Z,8.70
2022-10-13T07:29:07.968Z,8.73
2022-10-13T07:31:35.785Z,8.94
2022-10-13T07:34:05.030Z,8.94
2022-10-13T07:36:33.814Z,9.03
2022-10-13T07:39:05.659Z,9.28
2022-10-13T07:41:36.675Z,9.29
2022-10-13T07:44:04.694Z,9.29
2022-10-13T07:46:32.538Z,9.34
2022-10-13T07:49:00.631Z,9.43
2022-10-13T07:51:28.452Z,9.49
2022-10-13T07:53:56.223Z,9.53
2022-10-13T07:56:23.975Z,9.66
2022-10-13T07:58:51.819Z,9.69
2022-10-13T08:01:19.597Z,9.79
2022-10-13T08:03:50.158Z,9.95
2022-10-13T08:06:19.301Z,10.02
2022-10-13T08:08:48.023Z,10.19
2022-10-13T08:11:17.797Z,10.19
2022-10-13T08:13:50.891Z,10.27
2022-10-13T08:16:24.377Z,10.89
2022-10-13T08:18:53.005Z,11.27
2022-10-13T08:21:52.813Z,11.36
2022-10-13T08:24:16.770Z,11.48
2022-10-13T08:26:46.720Z,11.46
2022-10-13T08:29:24.094Z,11.83
2022-10-13T08:31:53.915Z,11.88
2022-10-13T08:34:23.692Z,11.91
2022-10-13T08:36:54.590Z,12.05
2022-10-13T08:39:24.563Z,12.13
2022-10-13T08:41:54.173Z,12.17
2022-10-13T08:47:47.415Z,12.36
2022-10-13T08:50:21.495Z,12.65
2022-10-13T08:53:03.234Z,12.95
2022-10-13T08:55:37.907Z,12.91
2022-10-13T08:58:34.399Z,12.86
2022-10-13T09:01:31.662Z,13.10
2022-10-13T09:04:41.676Z,13.50
2022-10-13T09:07:09.332Z,13.34
2022-10-13T09:09:38.128Z,13.29
2022-10-13T09:12:07.095Z,13.33
2022-10-13T09:14:37.861Z,13.45
2022-10-13T09:17:24.966Z,13.53
2022-10-13T09:20:02.623Z,13.55
2022-10-13T09:22:38.865Z,13.69
2022-10-13T09:25:06.483Z,13.76
2022-10-13T09:27:49.596Z,13.89
2022-10-13T09:30:40.905Z,14.16
2022-10-13T09:33:09.066Z,14.21
2022-10-13T09:35:39.753Z,14.25
2022-10-13T09:38:25.014Z,14.50
2022-10-13T09:41:04.642Z,14.47
2022-10-13T09:43:45.519Z,14.86
2022-10-13T09:46:53.759Z,14.82
2022-10-13T09:49:39.205Z,14.76
2022-10-13T09:52:13.527Z,15.03
2022-10-13T09:54:50.131Z,15.11
2022-10-13T09:57:44.989Z,15.00
2022-10-13T10:00:26.889Z,15.16
2022-10-13T10:03:27.933Z,15.37
2022-10-13T10:06:07.269Z,15.49
2022-10-13T10:09:09.676Z,15.49
2022-10-13T10:11:47.645Z,15.54
2022-10-13T10:14:37.024Z,15.61
2022-10-13T10:17:27.695Z,15.77
2022-10-13T10:20:39.186Z,15.71
2022-10-13T10:23:32.776Z,15.77
2022-10-13T10:26:23.686Z,15.78
2022-10-13T10:29:14.702Z,15.79
2022-10-13T10:32:12.903Z,15.84
2022-10-13T10:35:00.203Z,15.93
2022-10-13T10:37:53.435Z,15.89
2022-10-13T10:41:16.417Z,16.26
2022-10-13T10:44:00.222Z,16.28
2022-10-13T10:46:35.677Z,16.32
2022-10-13T10:49:32.391Z,16.49
2022-10-13T10:52:05.615Z,16.60
2022-10-13T10:54:48.321Z,16.51
2022-10-13T10:57:59.566Z,16.48
2022-10-13T11:04:30.438Z,16.58
2022-10-13T11:06:58.690Z,16.72
2022-10-13T11:09:51.103Z,16.89
2022-10-13T11:12:18.878Z,17.01
2022-10-13T11:15:02.335Z,17.07
2022-10-13T11:17:32.646Z,17.08
2022-10-13T11:20:00.754Z,17.18
2022-10-13T11:22:30.341Z,17.19
2022-10-13T11:25:24.068Z,17.29
2022-10-13T11:27:51.803Z,17.28
2022-10-13T11:30:47.379Z,17.31
2022-10-13T11:33:40.362Z,17.36
2022-10-13T11:36:31.396Z,17.40
2022-10-13T11:39:09.900Z,17.49
2022-10-13T11:42:34.112Z,17.57
2022-10-13T11:45:14.718Z,17.66
2022-10-13T11:48:28.452Z,17.67
2022-10-13T11:51:31.138Z,17.69
2022-10-13T11:54:32.867Z,17.83
2022-10-13T11:57:00.757Z,17.81
2022-10-13T11:59:39.625Z,17.84
2022-10-13T12:02:10.342Z,17.95
2022-10-13T12:04:45.671Z,18.05
2022-10-13T12:07:16.137Z,18.12
2022-10-13T12:09:54.934Z,18.21
2022-10-13T12:12:24.807Z,18.23
2022-10-13T12:14:56.918Z,18.34
2022-10-13T12:17:26.718Z,18.27
2022-10-13T12:20:01.867Z,18.67
2022-10-13T12:22:30.154Z,18.46
2022-10-13T12:25:05.137Z,18.43
2022-10-13T12:27:49.164Z,18.47
2022-10-13T12:30:28.668Z,18.64
2022-10-13T12:33:00.602Z,18.70
2022-10-13T12:35:32.406Z,18.76
2022-10-13T12:38:13.505Z,18.84
2022-10-13T12:40:41.338Z,19.02
2022-10-13T12:43:16.676Z,19.03
2022-10-13T12:45:46.707Z,18.93
2022-10-13T12:48:33.028Z,19.02
2022-10-13T12:51:22.603Z,18.83
2022-10-13T12:53:50.548Z,18.63
2022-10-13T12:56:27.600Z,18.66
2022-10-13T12:58:56.519Z,18.46
2022-10-13T13:01:35.556Z,18.41
2022-10-13T13:04:22.877Z,18.28
2022-10-13T13:07:06.519Z,18.13
2022-10-13T13:09:39.060Z,18.04
2022-10-13T13:12:18.455Z,17.96
2022-10-13T13:14:51.047Z,18.06
2022-10-13T13:17:32.986Z,18.00
2022-10-13T13:20:30.978Z,17.87
2022-10-13T13:22:59.698Z,17.93
2022-10-13T13:25:27.799Z,17.81
2022-10-13T13:27:55.567Z,17.93
2022-10-13T13:30:24.705Z,17.96
2022-10-13T13:32:52.385Z,18.00
2022-10-13T13:35:20.303Z,17.88
2022-10-13T13:37:50.895Z,17.88
2022-10-13T13:40:24.925Z,17.82
2022-10-13T13:42:53.773Z,17.90
2022-10-13T13:45:24.921Z,17.99
2022-10-13T13:47:57.992Z,17.96
2022-10-13T13:50:35.038Z,18.02
2022-10-13T13:53:04.249Z,18.09
2022-10-13T13:55:32.485Z,18.18
2022-10-13T13:58:01.603Z,18.18
2022-10-13T14:00:29.442Z,18.16
2022-10-13T14:02:57.649Z,18.26
2022-10-13T14:05:25.670Z,18.30
2022-10-13T14:07:57.618Z,18.19
2022-10-13T14:10:26.425Z,18.20
2022-10-13T14:12:54.123Z,18.38
2022-10-13T14:15:25.781Z,18.38
2022-10-13T14:17:57.148Z,18.44
2022-10-13T14:20:24.947Z,18.49
2022-10-13T14:22:52.692Z,18.53
2022-10-13T14:25:20.833Z,18.59
2022-10-13T14:27:48.569Z,18.56
2022-10-13T14:30:16.608Z,18.44
2022-10-13T14:32:44.389Z,18.27
2022-10-13T14:35:12.125Z,18.11
2022-10-13T14:37:40.092Z,18.07
2022-10-13T14:40:09.138Z,17.87
2022-10-13T14:42:38.922Z,17.64
2022-10-13T14:45:08.237Z,17.38
2022-10-13T14:47:35.870Z,17.27
2022-10-13T14:50:03.917Z,17.20
2022-10-13T14:52:31.665Z,17.15
2022-10-13T14:54:59.610Z,17.00
2022-10-13T14:57:27.469Z,16.94
2022-10-13T14:59:59.351Z,16.87
2022-10-13T15:02:29.923Z,16.91
2022-10-13T15:04:57.953Z,16.92
2022-10-13T15:07:25.833Z,16.92
2022-10-13T15:10:04.787Z,17.03
2022-10-13T15:12:34.164Z,17.00
2022-10-13T15:15:02.777Z,16.95
2022-10-13T15:17:33.175Z,16.85
2022-10-13T15:20:00.940Z,16.51
2022-10-13T15:22:28.626Z,16.25
2022-10-13T15:24:56.687Z,16.12
2022-10-13T15:27:24.441Z,15.97
2022-10-13T15:29:52.179Z,15.85
2022-10-13T15:32:20.411Z,15.76
2022-10-13T15:34:52.414Z,15.65
2022-10-13T15:37:20.187Z,15.49
2022-10-13T15:39:51.994Z,15.29
2022-10-13T15:42:22.683Z,15.18
2022-10-13T15:45:08.629Z,15.10
2022-10-13T15:47:38.076Z,15.02
2022-10-13T15:50:06.751Z,14.96
2022-10-13T15:52:40.368Z,14.89
2022-10-13T15:55:11.370Z,14.82
2022-10-13T15:57:39.153Z,14.77
2022-10-13T16:00:09.651Z,14.72
2022-10-13T16:02:41.586Z,14.62
2022-10-13T16:05:12.829Z,14.56
2022-10-13T16:07:41.502Z,14.49
2022-10-13T16:10:12.385Z,14.43
2022-10-13T16:12:45.464Z,14.37
2022-10-13T16:15:18.063Z,14.25
2022-10-13T16:17:46.289Z,14.20
2022-10-13T16:20:14.545Z,14.16
2022-10-13T16:22:42.474Z,14.08
2022-10-13T16:25:11.020Z,14.00
2022-10-13T16:27:43.886Z,13.91
2022-10-13T16:30:13.160Z,13.79
2022-10-13T16:32:41.234Z,13.76
2022-10-13T16:35:09.318Z,13.71
2022-10-13T16:37:37.213Z,13.62
2022-10-13T16:40:05.746Z,13.57
2022-10-13T16:42:33.423Z,13.54
2022-10-13T16:45:01.232Z,13.47
2022-10-13T16:47:30.035Z,13.39
2022-10-13T16:49:57.723Z,13.26
2022-10-13T16:52:25.425Z,13.17
2022-10-13T16:54:53.166Z,13.07
2022-10-13T16:57:21.107Z,12.95
2022-10-13T16:59:50.049Z,12.91
2022-10-13T17:02:17.698Z,12.93
2022-10-13T17:04:45.375Z,12.99
2022-10-13T17:07:13.191Z,12.99
2022-10-13T17:09:40.871Z,13.01
2022-10-13T17:12:08.724Z,13.05
2022-10-13T17:14:36.582Z,13.09
2022-10-13T17:17:04.594Z,13.06
2022-10-13T17:19:32.547Z,13.01
2022-10-13T17:22:00.490Z,13.01
2022-10-13T17:24:29.813Z,12.97
2022-10-13T17:26:57.547Z,12.94
2022-10-13T17:29:25.222Z,12.93
2022-10-13T17:31:54.427Z,12.95
2022-10-13T17:34:22.897Z,12.90
2022-10-13T17:36:52.525Z,12.84
2022-10-13T17:39:20.433Z,12.81
2022-10-13T17:41:48.212Z,12.76
2022-10-13T17:44:20.454Z,12.75
2022-10-13T17:46:49.943Z,12.72
2022-10-13T17:49:18.141Z,12.68
2022-10-13T17:51:46.574Z,12.66
2022-10-13T17:54:16.402Z,12.64
2022-10-13T17:56:47.583Z,12.62
2022-10-13T17:59:17.598Z,12.59
2022-10-13T18:01:45.670Z,12.57
2022-10-13T18:04:18.917Z,12.55
2022-10-13T18:06:47.105Z,12.54
2022-10-13T18:09:23.124Z,12.55
2022-10-13T18:11:53.727Z,12.50
2022-10-13T18:14:24.858Z,12.46
2022-10-13T18:16:53.850Z,12.46
2022-10-13T18:19:22.150Z,12.46
2022-10-13T18:21:50.029Z,12.48
2022-10-13T18:24:17.735Z,12.46
2022-10-13T18:26:46.203Z,12.44
2022-10-13T18:29:14.403Z,12.46
2022-10-13T18:31:43.578Z,12.44
2022-10-13T18:34:15.508Z,12.40
2022-10-13T18:36:47.256Z,12.40
2022-10-13T18:39:22.269Z,12.39
2022-10-13T18:41:51.974Z,12.34
2022-10-13T18:44:21.102Z,12.35
2022-10-13T18:46:51.394Z,12.34
2022-10-13T18:49:30.752Z,12.35
2022-10-13T18:52:01.226Z,12.38
2022-10-13T18:54:30.148Z,12.41
2022-10-13T18:56:58.138Z,12.44
2022-10-13T18:59:25.974Z,12.44
2022-10-13T19:01:53.683Z,12.43
2022-10-13T19:04:22.761Z,12.43
2022-10-13T19:06:51.592Z,12.44
2022-10-13T19:09:21.480Z,12.35
2022-10-13T19:11:49.264Z,12.34
2022-10-13T19:14:17.264Z,12.37
2022-10-13T19:16:45.166Z,12.40
2022-10-13T19:19:13.309Z,12.31
2022-10-13T19:21:41.325Z,12.24
2022-10-13T19:24:10.416Z,12.18
2022-10-13T19:26:39.317Z,12.12
2022-10-13T19:29:12.006Z,12.08
2022-10-13T19:31:41.678Z,12.04
2022-10-13T19:34:12.301Z,12.01
2022-10-13T19:36:46.395Z,11.91
2022-10-13T19:39:17.686Z,11.81
2022-10-13T19:41:46.871Z,11.80
2022-10-13T19:44:17.071Z,11.78
2022-10-13T19:46:46.587Z,11.82
2022-10-13T19:49:17.797Z,11.81
2022-10-13T19:51:47.398Z,11.82
2022-10-13T19:54:17.737Z,11.85
2022-10-13T19:56:47.946Z,11.85
2022-10-13T19:59:17.617Z,11.87
2022-10-13T20:01:45.804Z,11.92
2022-10-13T20:04:15.917Z,11.92
2022-10-13T20:06:44.866Z,11.90
2022-10-13T20:09:12.643Z,11.99
2022-10-13T20:11:40.822Z,11.99
2022-10-13T20:14:08.522Z,12.02
2022-10-13T20:16:37.831Z,12.02
2022-10-13T20:19:06.526Z,11.95
2022-10-13T20:21:34.271Z,11.91
2022-10-13T20:24:01.921Z,11.86
2022-10-13T20:26:29.696Z,11.81
2022-10-13T20:28:58.252Z,11.77
2022-10-13T20:31:26.519Z,11.70
2022-10-13T20:33:57.365Z,11.60
2022-10-13T20:36:28.074Z,11.59
2022-10-13T20:38:55.752Z,11.58
2022-10-13T20:41:29.290Z,11.49
2022-10-13T20:44:01.214Z,11.46
2022-10-13T20:46:31.161Z,11.37
2022-10-13T20:49:10.358Z,11.36
2022-10-13T20:51:39.275Z,11.42
2022-10-13T20:54:08.080Z,11.35
2022-10-13T20:56:35.952Z,11.39
2022-10-13T20:59:10.875Z,11.41
2022-10-13T21:01:38.946Z,11.29
2022-10-13T21:04:08.091Z,11.26
2022-10-13T21:06:36.103Z,11.31
2022-10-13T21:09:06.309Z,11.35
2022-10-13T21:11:35.509Z,11.37
2022-10-13T21:14:06.724Z,11.33
2022-10-13T21:16:36.716Z,11.30
2022-10-13T21:19:08.159Z,11.22
2022-10-13T21:21:36.373Z,11.14
2022-10-13T21:24:07.023Z,11.17
2022-10-13T21:26:36.246Z,11.31
2022-10-13T21:29:05.198Z,11.04
2022-10-13T21:31:35.673Z,10.92
2022-10-13T21:34:04.110Z,10.83
2022-10-13T21:36:33.768Z,10.93
2022-10-13T21:39:05.681Z,10.94
2022-10-13T21:41:34.231Z,10.94
2022-10-13T21:44:02.987Z,10.94
2022-10-13T21:46:34.801Z,10.86
2022-10-13T21:49:05.706Z,10.79
2022-10-13T21:51:37.871Z,11.01
2022-10-13T21:54:11.748Z,11.05
2022-10-13T21:56:40.886Z,10.89
2022-10-13T21:59:12.665Z,10.71
2022-10-13T22:01:41.165Z,10.64
2022-10-13T22:04:17.026Z,10.65
2022-10-13T22:06:45.158Z,10.60
2022-10-13T22:09:14.188Z,10.52
2022-10-13T22:11:43.235Z,10.53
2022-10-13T22:14:14.191Z,10.62
2022-10-13T22:16:46.318Z,10.54
2022-10-13T22:19:16.451Z,10.42
2022-10-13T22:21:49.336Z,10.45
2022-10-13T22:24:19.638Z,10.40
2022-10-13T22:26:49.329Z,10.42
2022-10-13T22:29:20.768Z,10.44
2022-10-13T22:31:50.885Z,10.40
2022-10-13T22:34:18.679Z,10.35
2022-10-13T22:36:46.391Z,10.52
2022-10-13T22:39:15.386Z,10.82
2022-10-13T22:41:43.482Z,10.70
2022-10-13T22:44:11.498Z,10.50
2022-10-13T22:46:40.023Z,10.47
2022-10-13T22:49:13.464Z,10.60
2022-10-13T22:51:41.505Z,10.57
2022-10-13T22:54:09.959Z,10.71
2022-10-13T22:56:37.784Z,10.78
2022-10-13T22:59:08.207Z,10.69
2022-10-13T23:01:36.477Z,10.72
2022-10-13T23:04:04.430Z,10.76
2022-10-13T23:06:34.324Z,10.63
2022-10-13T23:09:06.377Z,10.67
2022-10-13T23:11:34.767Z,10.38
2022-10-13T23:14:04.579Z,10.23
2022-10-13T23:16:32.892Z,10.38
2022-10-13T23:19:01.688Z,10.31
2022-10-13T23:21:30.508Z,10.16
2022-10-13T23:24:02.032Z,10.12
2022-10-13T23:26:30.976Z,10.04
2022-10-13T23:28:59.590Z,9.95
2022-10-13T23:31:28.167Z,9.92
2022-10-13T23:33:56.849Z,9.86
2022-10-13T23:36:28.066Z,9.78
2022-10-13T23:39:04.839Z,9.73
2022-10-13T23:41:34.362Z,9.68
2022-10-13T23:44:02.327Z,9.69
2022-10-13T23:46:30.697Z,9.67
2022-10-13T23:48:58.418Z,9.63
2022-10-13T23:51:26.268Z,9.58
2022-10-13T23:53:55.292Z,9.52
2022-10-13T23:56:23.901Z,9.48
2022-10-13T23:58:51.691Z,9.46
